createdAt,value
2017-11-13T00:01:36.787Z,12.33
2017-11-13T00:04:03.002Z,8.97
2017-11-13T00:06:29.253Z,9.53
2017-11-13T00:08:55.537Z,9.80
2017-11-13T00:11:21.816Z,11.77
2017-11-13T00:13:47.993Z,10.00
2017-11-13T00:16:15.039Z,9.20
2017-11-13T00:18:42.051Z,11.10
2017-11-13T00:21:08.335Z,9.20
2017-11-13T00:23:34.555Z,9.43
2017-11-13T00:26:00.892Z,14.03
2017-11-13T00:28:27.144Z,11.43
2017-11-13T00:30:53.425Z,9.63
2017-11-13T00:33:20.424Z,15.70
2017-11-13T00:35:46.609Z,9.83
2017-11-13T00:38:13.568Z,10.30
2017-11-13T00:40:39.851Z,12.60
2017-11-13T00:43:06.813Z,10.43
2017-11-13T00:45:33.856Z,11.73
2017-11-13T00:48:00.061Z,10.50
2017-11-13T00:50:26.351Z,11.37
2017-11-13T00:52:52.570Z,12.00
2017-11-13T00:55:19.517Z,11.87
2017-11-13T00:57:45.736Z,11.80
2017-11-13T01:00:12.739Z,9.47
2017-11-13T01:02:39.985Z,12.03
2017-11-13T01:05:06.526Z,9.33
2017-11-13T01:07:32.803Z,11.43
2017-11-13T01:09:59.050Z,13.00
2017-11-13T01:12:26.222Z,14.50
2017-11-13T01:14:52.472Z,13.97
2017-11-13T01:17:18.743Z,11.20
2017-11-13T01:19:44.961Z,12.97
2017-11-13T01:22:11.165Z,11.13
2017-11-13T01:24:37.470Z,11.60
2017-11-13T01:27:03.742Z,13.20
2017-11-13T01:29:29.969Z,12.53
2017-11-13T01:31:56.284Z,12.73
2017-11-13T01:34:22.488Z,13.40
2017-11-13T01:36:48.755Z,12.63
2017-11-13T01:39:15.037Z,11.10
2017-11-13T01:41:41.352Z,11.90
2017-11-13T01:44:08.385Z,13.20
2017-11-13T01:46:34.629Z,11.40
2017-11-13T01:49:02.983Z,12.33
2017-11-13T01:51:29.307Z,14.47
2017-11-13T01:53:56.274Z,13.47
2017-11-13T01:56:22.513Z,13.33
2017-11-13T01:58:49.540Z,11.80
2017-11-13T02:01:16.779Z,13.03
2017-11-13T02:03:43.088Z,11.70
2017-11-13T02:06:09.430Z,13.67
2017-11-13T02:08:35.715Z,13.27
2017-11-13T02:11:02.657Z,13.30
2017-11-13T02:13:29.660Z,14.40
2017-11-13T02:15:55.896Z,12.60
2017-11-13T02:18:22.181Z,12.17
2017-11-13T02:20:48.452Z,12.53
2017-11-13T02:23:14.773Z,14.33
2017-11-13T02:25:41.076Z,15.33
2017-11-13T02:28:07.408Z,15.37
2017-11-13T02:30:33.733Z,15.80
2017-11-13T02:32:59.942Z,14.17
2017-11-13T02:35:26.938Z,12.03
2017-11-13T02:37:53.158Z,13.80
2017-11-13T02:40:21.078Z,15.20
2017-11-13T02:42:48.112Z,16.43
2017-11-13T02:45:15.357Z,15.20
2017-11-13T02:47:43.524Z,16.10
2017-11-13T02:50:09.832Z,16.63
2017-11-13T02:52:39.373Z,14.90
2017-11-13T02:55:06.827Z,16.60
2017-11-13T02:57:33.304Z,16.57
2017-11-13T03:00:01.313Z,16.50
2017-11-13T03:02:27.548Z,16.03
2017-11-13T03:04:53.808Z,14.80
2017-11-13T03:07:20.878Z,17.67
2017-11-13T03:09:50.100Z,21.70
2017-11-13T03:12:18.083Z,15.67
2017-11-13T03:14:46.224Z,16.63
2017-11-13T03:17:16.104Z,19.40
2017-11-13T03:19:43.810Z,17.27
2017-11-13T03:22:11.350Z,18.37
2017-11-13T03:24:40.681Z,18.33
2017-11-13T03:27:10.534Z,15.90
2017-11-13T03:29:36.930Z,18.00
2017-11-13T03:32:03.263Z,17.97
2017-11-13T03:34:29.474Z,17.53
2017-11-13T03:39:28.067Z,20.40
2017-11-13T03:41:54.337Z,17.57
2017-11-13T03:44:21.303Z,17.80
2017-11-13T03:46:47.526Z,17.40
2017-11-13T03:49:14.499Z,17.90
2017-11-13T03:51:40.698Z,17.93
2017-11-13T03:54:07.628Z,14.93
2017-11-13T03:56:33.815Z,16.37
2017-11-13T03:59:00.068Z,14.83
2017-11-13T04:01:26.316Z,16.50
2017-11-13T04:03:52.597Z,16.47
2017-11-13T04:06:18.806Z,17.60
2017-11-13T04:08:45.728Z,15.70
2017-11-13T04:11:12.020Z,16.30
2017-11-13T04:13:38.288Z,15.87
2017-11-13T04:16:04.545Z,22.50
2017-11-13T04:18:30.800Z,16.60
2017-11-13T04:20:57.893Z,14.60
2017-11-13T04:23:24.154Z,15.97
2017-11-13T04:25:51.110Z,16.67
2017-11-13T04:28:20.567Z,15.40
2017-11-13T04:30:47.508Z,15.77
2017-11-13T04:33:14.527Z,14.07
2017-11-13T04:35:41.373Z,14.77
2017-11-13T04:38:07.593Z,16.90
2017-11-13T04:40:33.841Z,14.83
2017-11-13T04:43:00.081Z,15.73
2017-11-13T04:45:27.065Z,15.00
2017-11-13T04:47:53.342Z,15.53
2017-11-13T04:50:21.224Z,19.67
2017-11-13T04:52:48.208Z,16.87
2017-11-13T04:55:15.141Z,15.63
2017-11-13T05:00:45.156Z,17.00
2017-11-13T05:03:12.015Z,19.73
2017-11-13T05:05:38.271Z,20.33
2017-11-13T05:08:04.561Z,17.73
2017-11-13T05:10:30.864Z,16.50
2017-11-13T05:12:57.132Z,16.73
2017-11-13T05:15:24.153Z,16.97
2017-11-13T05:17:50.480Z,15.97
2017-11-13T05:20:16.717Z,16.63
2017-11-13T05:22:42.965Z,15.63
2017-11-13T05:25:09.978Z,16.60
2017-11-13T05:27:36.179Z,15.40
2017-11-13T05:30:02.473Z,16.97
2017-11-13T05:32:29.441Z,13.23
2017-11-13T05:34:56.731Z,16.27
2017-11-13T05:37:22.932Z,14.90
2017-11-13T05:39:49.209Z,13.13
2017-11-13T05:42:16.176Z,11.60
2017-11-13T05:44:42.375Z,15.13
2017-11-13T05:47:08.568Z,14.50
2017-11-13T05:49:34.763Z,17.00
2017-11-13T05:52:01.744Z,14.00
2017-11-13T05:54:27.960Z,14.23
2017-11-13T05:56:54.190Z,13.97
2017-11-13T05:59:20.471Z,12.83
2017-11-13T06:01:46.683Z,14.60
2017-11-13T06:04:13.017Z,13.03
2017-11-13T06:06:39.249Z,12.80
2017-11-13T06:09:08.478Z,11.90
2017-11-13T06:11:36.360Z,13.57
2017-11-13T06:14:02.641Z,13.77
2017-11-13T06:16:29.800Z,11.83
2017-11-13T06:18:55.996Z,12.20
2017-11-13T06:21:22.236Z,11.87
2017-11-13T06:23:48.460Z,11.60
2017-11-13T06:26:14.683Z,12.10
2017-11-13T06:28:40.913Z,14.10
2017-11-13T06:31:09.903Z,8.73
2017-11-13T06:33:42.002Z,12.20
2017-11-13T06:36:08.956Z,11.77
2017-11-13T06:38:35.941Z,11.60
2017-11-13T06:41:02.157Z,10.87
2017-11-13T06:43:28.361Z,10.90
2017-11-13T06:45:54.591Z,10.30
2017-11-13T06:48:20.768Z,11.63
2017-11-13T06:50:47.231Z,10.50
2017-11-13T06:53:14.955Z,11.13
2017-11-13T06:55:42.817Z,10.77
2017-11-13T06:58:10.910Z,11.07
2017-11-13T07:00:37.129Z,15.53
2017-11-13T07:03:03.378Z,11.80
2017-11-13T07:05:29.606Z,11.80
2017-11-13T07:07:55.789Z,31.80
2017-11-13T07:10:22.784Z,10.77
2017-11-13T07:12:48.998Z,14.20
2017-11-13T07:15:15.214Z,15.20
2017-11-13T07:17:41.429Z,11.53
2017-11-13T07:20:07.623Z,12.37
2017-11-13T07:22:33.898Z,10.00
2017-11-13T07:25:00.117Z,12.00
2017-11-13T07:27:26.352Z,12.30
2017-11-13T07:29:52.589Z,9.23
2017-11-13T07:32:18.852Z,13.80
2017-11-13T07:34:45.848Z,12.47
2017-11-13T07:37:12.097Z,10.60
2017-11-13T07:39:38.372Z,12.10
2017-11-13T07:42:05.426Z,10.20
2017-11-13T07:44:32.405Z,10.90
2017-11-13T07:46:58.983Z,11.90
2017-11-13T07:49:25.241Z,13.83
2017-11-13T07:51:52.197Z,12.37
2017-11-13T07:54:19.171Z,12.57
2017-11-13T07:56:45.356Z,10.57
2017-11-13T07:59:12.361Z,10.23
2017-11-13T08:01:38.618Z,10.23
2017-11-13T08:04:06.741Z,11.00
2017-11-13T08:06:32.954Z,9.00
2017-11-13T08:08:59.950Z,8.57
2017-11-13T08:11:29.494Z,9.07
2017-11-13T08:13:56.516Z,12.00
2017-11-13T08:16:23.676Z,7.90
2017-11-13T08:18:49.882Z,7.93
2017-11-13T08:21:16.167Z,7.10
2017-11-13T08:23:43.252Z,8.70
2017-11-13T08:26:09.531Z,11.37
2017-11-13T08:28:35.856Z,10.43
2017-11-13T08:31:03.788Z,11.30
2017-11-13T08:33:30.837Z,10.60
2017-11-13T08:35:57.173Z,9.80
2017-11-13T08:38:23.507Z,9.50
2017-11-13T08:40:50.500Z,9.80
2017-11-13T08:43:16.641Z,8.50
2017-11-13T08:45:43.936Z,7.40
2017-11-13T08:48:10.981Z,8.03
2017-11-13T08:50:38.846Z,8.60
2017-11-13T08:53:05.017Z,8.87
2017-11-13T08:55:31.241Z,10.17
2017-11-13T08:57:57.488Z,6.47
2017-11-13T09:00:23.742Z,6.23
2017-11-13T09:02:49.988Z,6.67
2017-11-13T09:05:17.010Z,7.40
2017-11-13T09:07:43.217Z,7.23
2017-11-13T09:10:09.447Z,7.47
2017-11-13T09:12:35.681Z,7.30
2017-11-13T09:15:01.922Z,7.57
2017-11-13T09:17:28.128Z,6.60
2017-11-13T09:19:54.409Z,9.53
2017-11-13T09:22:21.432Z,7.20
2017-11-13T09:24:48.212Z,6.70
2017-11-13T09:27:14.410Z,6.37
2017-11-13T09:29:40.617Z,7.23
2017-11-13T09:32:07.005Z,6.67
2017-11-13T09:34:36.460Z,5.80
2017-11-13T09:37:02.682Z,7.47
2017-11-13T09:39:28.920Z,6.00
2017-11-13T09:41:55.150Z,5.27
2017-11-13T09:44:23.589Z,5.60
2017-11-13T09:46:51.928Z,5.80
2017-11-13T09:49:20.113Z,5.40
2017-11-13T09:51:47.655Z,7.37
2017-11-13T09:54:13.936Z,5.37
2017-11-13T09:56:42.953Z,5.80
2017-11-13T09:59:09.213Z,7.77
2017-11-13T10:01:35.438Z,6.37
2017-11-13T10:04:02.210Z,5.17
2017-11-13T10:06:29.748Z,5.17
2017-11-13T10:08:56.762Z,11.37
2017-11-13T10:11:23.957Z,5.20
2017-11-13T10:13:52.096Z,4.50
2017-11-13T10:16:18.905Z,5.53
2017-11-13T10:18:47.980Z,5.43
2017-11-13T10:21:14.299Z,4.93
2017-11-13T10:23:44.104Z,4.10
2017-11-13T10:26:11.889Z,4.87
2017-11-13T10:28:38.912Z,4.30
2017-11-13T10:31:06.116Z,4.13
2017-11-13T10:33:32.396Z,5.57
2017-11-13T10:35:59.590Z,3.90
2017-11-13T10:38:25.835Z,3.53
2017-11-13T10:40:52.062Z,2.70
2017-11-13T10:43:22.186Z,6.10
2017-11-13T10:45:48.409Z,3.60
2017-11-13T10:48:16.823Z,5.30
2017-11-13T10:50:43.785Z,2.83
2017-11-13T10:53:10.815Z,8.47
2017-11-13T10:55:37.934Z,4.93
2017-11-13T10:58:04.233Z,3.30
2017-11-13T11:00:30.516Z,5.80
2017-11-13T11:02:57.552Z,4.10
2017-11-13T11:05:23.824Z,3.70
2017-11-13T11:07:50.867Z,3.93
2017-11-13T11:10:17.941Z,3.00
2017-11-13T11:12:44.213Z,6.60
2017-11-13T11:18:24.748Z,4.23
2017-11-13T11:20:55.977Z,4.67
2017-11-13T11:23:30.849Z,6.90
2017-11-13T11:26:01.083Z,3.40
2017-11-13T11:28:28.201Z,2.17
2017-11-13T11:31:01.574Z,3.47
2017-11-13T11:33:39.025Z,4.50
2017-11-13T11:36:21.146Z,10.30
2017-11-13T11:38:47.424Z,10.03
2017-11-13T11:41:14.593Z,3.00
2017-11-13T11:43:40.853Z,2.50
2017-11-13T11:46:07.146Z,3.80
2017-11-13T11:48:34.403Z,1.90
2017-11-13T11:51:00.721Z,3.53
2017-11-13T11:53:27.076Z,2.40
2017-11-13T11:55:57.202Z,3.53
2017-11-13T11:58:23.520Z,4.67
2017-11-13T12:00:49.805Z,4.13
2017-11-13T12:03:16.816Z,2.90
2017-11-13T12:05:43.126Z,8.27
2017-11-13T12:08:09.472Z,3.67
2017-11-13T12:10:35.742Z,3.00
2017-11-13T12:13:02.753Z,2.60
2017-11-13T12:15:29.001Z,2.40
2017-11-13T12:17:55.218Z,4.27
2017-11-13T12:20:21.564Z,11.60
2017-11-13T12:22:47.844Z,4.97
2017-11-13T12:25:14.053Z,4.07
2017-11-13T12:27:40.325Z,6.30
2017-11-13T12:30:06.602Z,2.23
2017-11-13T12:32:33.584Z,2.43
2017-11-13T12:34:59.853Z,1.80
2017-11-13T12:37:26.800Z,2.53
2017-11-13T12:39:55.472Z,1.50
2017-11-13T12:42:28.424Z,3.80
2017-11-13T12:44:54.673Z,3.93
2017-11-13T12:47:21.751Z,3.90
2017-11-13T12:49:48.037Z,1.20
2017-11-13T12:52:14.309Z,0.80
2017-11-13T12:54:41.863Z,1.03
2017-11-13T12:57:08.118Z,0.90
2017-11-13T12:59:35.359Z,1.17
2017-11-13T13:02:02.372Z,0.83
2017-11-13T13:04:29.291Z,0.83
2017-11-13T13:06:55.577Z,0.60
2017-11-13T13:09:25.030Z,2.27
2017-11-13T13:11:51.453Z,1.13
2017-11-13T13:14:18.062Z,1.00
2017-11-13T13:16:45.099Z,0.80
2017-11-13T13:19:12.123Z,0.67
2017-11-13T13:21:39.175Z,1.07
2017-11-13T13:24:05.436Z,1.90
2017-11-13T13:26:32.434Z,3.13
2017-11-13T13:28:58.720Z,1.00
2017-11-13T13:31:24.973Z,0.83
2017-11-13T13:33:51.173Z,1.20
2017-11-13T13:36:17.454Z,1.40
2017-11-13T13:38:43.731Z,1.00
2017-11-13T13:41:10.745Z,1.17
2017-11-13T13:43:37.695Z,1.00
2017-11-13T13:46:03.905Z,1.27
2017-11-13T13:48:30.109Z,1.57
2017-11-13T13:50:56.326Z,1.70
2017-11-13T13:53:22.612Z,1.60
2017-11-13T13:55:48.813Z,1.47
2017-11-13T13:58:15.066Z,1.73
2017-11-13T14:00:41.294Z,2.20
2017-11-13T14:03:08.269Z,1.70
2017-11-13T14:05:35.241Z,1.53
2017-11-13T14:08:01.539Z,1.87
2017-11-13T14:10:28.599Z,1.60
2017-11-13T14:12:54.855Z,1.53
2017-11-13T14:15:21.109Z,2.23
2017-11-13T14:17:47.314Z,2.80
2017-11-13T14:20:13.605Z,4.93
2017-11-13T14:22:46.762Z,1.83
2017-11-13T14:25:13.004Z,1.40
2017-11-13T14:27:41.409Z,1.87
2017-11-13T14:30:09.248Z,2.63
2017-11-13T14:32:37.976Z,3.97
2017-11-13T14:35:04.774Z,1.83
2017-11-13T14:37:30.963Z,2.87
2017-11-13T14:39:57.211Z,5.80
2017-11-13T14:42:23.492Z,1.60
2017-11-13T14:44:49.774Z,2.53
2017-11-13T14:47:16.745Z,1.83
2017-11-13T14:49:42.970Z,4.27
2017-11-13T14:52:09.262Z,2.20
2017-11-13T14:54:35.498Z,4.57
2017-11-13T14:57:02.140Z,2.07
2017-11-13T14:59:28.425Z,2.70
2017-11-13T15:01:54.641Z,2.13
2017-11-13T15:04:21.659Z,5.50
2017-11-13T15:06:48.853Z,1.80
2017-11-13T15:09:15.081Z,2.60
2017-11-13T15:11:41.331Z,4.03
2017-11-13T15:14:07.662Z,3.83
2017-11-13T15:16:33.933Z,5.30
2017-11-13T15:19:00.212Z,2.90
2017-11-13T15:21:26.522Z,2.87
2017-11-13T15:23:52.843Z,2.50
2017-11-13T15:26:35.664Z,4.10
2017-11-13T15:29:03.682Z,2.63
2017-11-13T15:31:29.897Z,2.27
2017-11-13T15:33:56.164Z,3.27
2017-11-13T15:36:22.361Z,5.83
2017-11-13T15:38:48.601Z,3.67
2017-11-13T15:41:14.888Z,5.43
2017-11-13T15:43:41.445Z,2.33
2017-11-13T15:46:07.727Z,4.57
2017-11-13T15:48:34.687Z,2.73
2017-11-13T15:51:01.685Z,3.97
2017-11-13T15:53:27.905Z,2.40
2017-11-13T15:55:54.163Z,3.60
2017-11-13T15:58:20.387Z,3.10
2017-11-13T16:00:46.647Z,2.10
2017-11-13T16:03:13.647Z,2.17
2017-11-13T16:05:39.931Z,2.60
2017-11-13T16:08:06.169Z,1.97
2017-11-13T16:10:32.456Z,2.80
2017-11-13T16:12:58.657Z,4.00
2017-11-13T16:15:24.854Z,3.63
2017-11-13T16:17:51.098Z,1.87
2017-11-13T16:20:17.398Z,1.70
2017-11-13T16:22:44.396Z,2.43
2017-11-13T16:25:10.626Z,5.50
2017-11-13T16:27:36.850Z,1.83
2017-11-13T16:30:03.180Z,7.60
2017-11-13T16:32:29.406Z,2.87
2017-11-13T16:34:55.647Z,6.77
2017-11-13T16:37:21.852Z,2.90
2017-11-13T16:39:48.139Z,5.30
2017-11-13T16:42:15.085Z,7.10
2017-11-13T16:44:42.123Z,4.90
2017-11-13T16:47:09.106Z,9.70
2017-11-13T16:49:35.408Z,4.80
2017-11-13T16:52:02.448Z,7.60
2017-11-13T16:54:29.420Z,4.10
2017-11-13T16:56:55.719Z,21.40
2017-11-13T16:59:22.699Z,2.77
2017-11-13T17:01:48.905Z,8.87
2017-11-13T17:04:15.948Z,3.73
2017-11-13T17:06:42.917Z,4.40
2017-11-13T17:09:09.116Z,2.97
2017-11-13T17:11:35.396Z,3.07
2017-11-13T17:14:01.625Z,6.93
2017-11-13T17:16:27.867Z,3.03
2017-11-13T17:18:54.132Z,13.10
2017-11-13T17:21:21.120Z,5.33
2017-11-13T17:23:47.358Z,4.20
2017-11-13T17:26:13.630Z,2.30
2017-11-13T17:28:39.877Z,4.03
2017-11-13T17:31:06.797Z,3.80
2017-11-13T17:33:33.829Z,4.53
2017-11-13T17:36:00.830Z,3.83
2017-11-13T17:38:27.084Z,5.23
2017-11-13T17:40:53.450Z,6.53
2017-11-13T17:43:22.127Z,4.17
2017-11-13T17:45:53.483Z,9.60
2017-11-13T17:48:22.829Z,4.53
2017-11-13T17:50:54.659Z,6.00
2017-11-13T17:53:25.571Z,8.43
2017-11-13T17:55:52.394Z,2.90
2017-11-13T17:58:19.572Z,3.93
2017-11-13T18:00:47.902Z,6.97
2017-11-13T18:03:15.565Z,5.00
2017-11-13T18:08:41.636Z,10.17
2017-11-13T18:11:08.465Z,9.07
2017-11-13T18:13:53.194Z,13.33
2017-11-13T18:16:23.156Z,15.10
2017-11-13T18:18:52.259Z,20.77
2017-11-13T18:21:18.606Z,14.63
2017-11-13T18:23:44.811Z,10.53
2017-11-13T18:26:11.071Z,13.77
2017-11-13T18:28:37.397Z,11.10
2017-11-13T18:31:03.763Z,8.30
2017-11-13T18:33:29.964Z,5.27
2017-11-13T18:35:57.194Z,10.07
2017-11-13T18:38:23.984Z,5.70
2017-11-13T18:40:50.256Z,6.53
2017-11-13T18:43:16.481Z,5.33
2017-11-13T18:45:42.759Z,6.33
2017-11-13T18:48:09.751Z,9.10
2017-11-13T18:50:36.018Z,6.73
2017-11-13T18:53:03.004Z,21.23
2017-11-13T18:55:29.247Z,15.77
2017-11-13T18:57:55.503Z,4.57
2017-11-13T19:00:21.788Z,5.50
2017-11-13T19:02:47.978Z,11.10
2017-11-13T19:05:14.976Z,11.77
2017-11-13T19:07:41.198Z,8.10
2017-11-13T19:10:07.411Z,10.70
2017-11-13T19:12:33.677Z,15.03
2017-11-13T19:14:59.936Z,17.30
2017-11-13T19:17:26.162Z,12.47
2017-11-13T19:19:53.137Z,19.90
2017-11-13T19:22:20.127Z,23.40
2017-11-13T19:24:46.373Z,25.43
2017-11-13T19:27:13.526Z,23.33
2017-11-13T19:29:40.170Z,19.10
2017-11-13T19:32:07.861Z,15.13
2017-11-13T19:34:34.865Z,13.83
2017-11-13T19:37:01.136Z,10.90
2017-11-13T19:39:28.121Z,10.10
2017-11-13T19:41:54.329Z,11.70
2017-11-13T19:44:20.529Z,6.33
2017-11-13T19:46:47.506Z,4.33
2017-11-13T19:49:13.957Z,5.33
2017-11-13T19:51:40.359Z,5.23
2017-11-13T19:54:07.245Z,4.13
2017-11-13T19:56:33.607Z,3.87
2017-11-13T19:59:00.596Z,8.13
2017-11-13T20:01:26.864Z,18.63
2017-11-13T20:03:53.849Z,24.43
2017-11-13T20:06:20.178Z,28.27
2017-11-13T20:08:47.138Z,22.27
2017-11-13T20:11:13.943Z,34.40
2017-11-13T20:13:40.239Z,34.03
2017-11-13T20:16:07.026Z,32.80
2017-11-13T20:18:34.163Z,30.37
2017-11-13T20:21:01.140Z,28.60
2017-11-13T20:23:28.116Z,37.97
2017-11-13T20:25:54.914Z,25.27
2017-11-13T20:28:21.885Z,23.10
2017-11-13T20:30:48.146Z,22.80
2017-11-13T20:33:15.028Z,24.70
2017-11-13T20:35:42.131Z,32.70
2017-11-13T20:38:08.358Z,36.23
2017-11-13T20:40:34.616Z,23.40
2017-11-13T20:43:00.905Z,21.70
2017-11-13T20:45:27.131Z,21.20
2017-11-13T20:47:53.550Z,17.27
2017-11-13T20:50:19.794Z,13.60
2017-11-13T20:52:46.074Z,16.13
2017-11-13T20:55:13.181Z,15.67
2017-11-13T20:57:39.450Z,13.13
2017-11-13T21:00:05.716Z,13.93
2017-11-13T21:02:32.015Z,13.47
2017-11-13T21:04:59.045Z,8.37
2017-11-13T21:07:26.045Z,11.90
2017-11-13T21:09:52.275Z,9.67
2017-11-13T21:12:18.538Z,10.23
2017-11-13T21:14:44.840Z,11.60
2017-11-13T21:17:11.101Z,6.27
2017-11-13T21:19:37.397Z,10.00
2017-11-13T21:22:03.687Z,9.53
2017-11-13T21:24:31.655Z,10.70
2017-11-13T21:26:59.311Z,9.10
2017-11-13T21:29:26.333Z,10.67
2017-11-13T21:31:52.653Z,11.00
2017-11-13T21:34:18.940Z,11.07
2017-11-13T21:36:45.893Z,9.93
2017-11-13T21:39:12.882Z,9.07
2017-11-13T21:41:39.157Z,10.20
2017-11-13T21:44:06.145Z,10.00
2017-11-13T21:46:32.420Z,10.97
2017-11-13T21:48:59.421Z,11.27
2017-11-13T21:51:25.698Z,10.97
2017-11-13T21:53:52.684Z,11.40
2017-11-13T21:56:18.916Z,8.47
2017-11-13T21:58:45.195Z,7.77
2017-11-13T22:01:13.244Z,19.23
2017-11-13T22:03:39.473Z,7.10
2017-11-13T22:06:05.639Z,13.30
2017-11-13T22:08:32.609Z,7.20
2017-11-13T22:10:58.872Z,9.53
2017-11-13T22:13:25.188Z,9.70
2017-11-13T22:15:51.439Z,9.57
2017-11-13T22:18:17.759Z,10.93
2017-11-13T22:20:44.930Z,11.40
2017-11-13T22:23:11.133Z,9.60
2017-11-13T22:25:37.467Z,11.50
2017-11-13T22:28:03.697Z,12.97
2017-11-13T22:30:29.988Z,10.63
2017-11-13T22:32:56.262Z,13.20
2017-11-13T22:35:22.470Z,10.97
2017-11-13T22:37:48.638Z,14.20
2017-11-13T22:40:14.828Z,16.00
2017-11-13T22:42:41.068Z,20.33
2017-11-13T22:45:07.276Z,13.87
2017-11-13T22:47:33.622Z,13.83
2017-11-13T22:49:59.856Z,14.53
2017-11-13T22:52:26.058Z,20.00
2017-11-13T22:54:52.314Z,7.07
2017-11-13T22:57:18.548Z,7.63
2017-11-13T22:59:44.770Z,10.77
2017-11-13T23:02:11.053Z,9.77
2017-11-13T23:04:37.354Z,8.93
2017-11-13T23:07:04.335Z,8.70
2017-11-13T23:09:30.582Z,10.20
2017-11-13T23:11:56.851Z,14.00
2017-11-13T23:14:23.092Z,8.03
2017-11-13T23:16:49.388Z,6.63
2017-11-13T23:19:15.581Z,11.87
2017-11-13T23:21:41.827Z,9.40
2017-11-13T23:24:08.072Z,18.47
2017-11-13T23:26:34.338Z,19.60
2017-11-13T23:29:01.361Z,17.47
2017-11-13T23:31:27.660Z,16.03
2017-11-13T23:33:53.919Z,20.07
2017-11-13T23:36:20.208Z,13.20
2017-11-13T23:38:46.520Z,15.10
2017-11-13T23:41:13.540Z,21.57
2017-11-13T23:43:40.516Z,49.80
2017-11-13T23:46:06.761Z,39.63
2017-11-13T23:48:32.984Z,37.00
2017-11-13T23:50:59.200Z,16.23
2017-11-13T23:53:26.261Z,33.50
2017-11-13T23:55:52.521Z,18.07
2017-11-13T23:58:18.716Z,38.13
